createdAt,value
2019-02-27T00:00:11.478Z,94.18
2019-02-27T00:01:10.485Z,93.80
2019-02-27T00:02:10.403Z,93.89
2019-02-27T00:03:10.326Z,93.32
2019-02-27T00:04:10.245Z,91.71
2019-02-27T00:05:10.168Z,91.29
2019-02-27T00:06:10.082Z,91.48
2019-02-27T00:07:09.999Z,92.14
2019-02-27T00:08:09.916Z,92.90
2019-02-27T00:09:09.837Z,93.84
2019-02-27T00:10:09.750Z,94.79
2019-02-27T00:11:09.945Z,96.40
2019-02-27T00:12:09.589Z,96.02
2019-02-27T00:13:09.558Z,96.31
2019-02-27T00:14:09.424Z,96.02
2019-02-27T00:15:09.341Z,96.12
2019-02-27T00:16:11.121Z,96.50
2019-02-27T00:17:09.194Z,95.83
2019-02-27T00:18:09.093Z,95.07
2019-02-27T00:19:09.019Z,94.60
2019-02-27T00:20:08.932Z,94.32
2019-02-27T00:21:10.987Z,93.37
2019-02-27T00:22:08.766Z,90.91
2019-02-27T00:23:08.678Z,88.17
2019-02-27T00:24:08.603Z,87.31
2019-02-27T00:25:08.522Z,87.59
2019-02-27T00:26:09.049Z,87.31
2019-02-27T00:27:08.355Z,86.83
2019-02-27T00:28:08.285Z,87.40
2019-02-27T00:29:08.192Z,89.01
2019-02-27T00:30:08.112Z,89.77
2019-02-27T00:31:11.142Z,91.29
2019-02-27T00:32:07.947Z,92.24
2019-02-27T00:33:07.865Z,93.08
2019-02-27T00:34:07.778Z,92.71
2019-02-27T00:35:07.701Z,92.90
2019-02-27T00:36:11.984Z,93.80
2019-02-27T00:37:07.538Z,93.84
2019-02-27T00:38:07.453Z,93.94
2019-02-27T00:39:07.372Z,93.37
2019-02-27T00:40:07.292Z,93.75
2019-02-27T00:41:07.234Z,93.84
2019-02-27T00:42:07.124Z,94.23
2019-02-27T00:43:07.044Z,93.56
2019-02-27T00:44:06.955Z,92.52
2019-02-27T00:45:07.635Z,91.19
2019-02-27T00:46:06.796Z,91.19
2019-02-27T00:47:06.719Z,91.10
2019-02-27T00:48:06.631Z,91.67
2019-02-27T00:49:06.548Z,90.91
2019-02-27T00:50:06.781Z,90.63
2019-02-27T00:51:06.381Z,88.45
2019-02-27T00:52:06.309Z,86.93
2019-02-27T00:53:06.217Z,85.80
2019-02-27T00:54:06.134Z,84.66
2019-02-27T00:55:06.053Z,85.04
2019-02-27T00:56:05.971Z,86.18
2019-02-27T00:57:05.890Z,87.50
2019-02-27T00:58:05.809Z,88.26
2019-02-27T00:59:05.723Z,88.45
2019-02-27T01:00:06.635Z,87.40
2019-02-27T01:01:05.572Z,85.99
2019-02-27T01:02:05.475Z,84.42
2019-02-27T01:03:05.394Z,83.90
2019-02-27T01:04:05.314Z,85.13
2019-02-27T01:05:06.199Z,86.18
2019-02-27T01:06:05.144Z,87.12
2019-02-27T01:07:05.068Z,87.59
2019-02-27T01:08:04.979Z,88.26
2019-02-27T01:09:06.391Z,88.40
2019-02-27T01:10:04.818Z,88.07
2019-02-27T01:11:04.736Z,86.60
2019-02-27T01:12:04.657Z,85.38
2019-02-27T01:13:04.572Z,85.75
2019-02-27T01:14:04.614Z,86.04
2019-02-27T01:15:04.406Z,86.60
2019-02-27T01:16:04.325Z,87.65
2019-02-27T01:17:04.259Z,87.55
2019-02-27T01:18:04.166Z,88.12
2019-02-27T01:19:04.789Z,88.21
2019-02-27T01:20:03.994Z,87.36
2019-02-27T01:21:03.911Z,86.70
2019-02-27T01:22:03.831Z,86.70
2019-02-27T01:23:03.746Z,86.51
2019-02-27T01:24:03.667Z,86.13
2019-02-27T01:25:03.586Z,86.79
2019-02-27T01:26:03.499Z,86.89
2019-02-27T01:27:04.617Z,87.17
2019-02-27T01:28:03.335Z,87.93
2019-02-27T01:29:03.259Z,88.40
2019-02-27T01:30:03.169Z,88.59
2019-02-27T01:31:03.085Z,88.93
2019-02-27T01:32:03.005Z,89.73
2019-02-27T01:33:04.231Z,89.87
2019-02-27T01:34:02.839Z,91.29
2019-02-27T01:35:02.759Z,91.96
2019-02-27T01:36:02.674Z,93.18
2019-02-27T01:37:02.618Z,92.61
2019-02-27T01:38:05.000Z,91.20
2019-02-27T01:39:02.423Z,91.20
2019-02-27T01:40:02.343Z,92.52
2019-02-27T01:41:02.260Z,92.90
2019-02-27T01:42:02.175Z,92.52
2019-02-27T01:43:05.538Z,92.05
2019-02-27T01:44:02.011Z,92.80
2019-02-27T01:45:01.931Z,93.66
2019-02-27T01:46:01.846Z,93.75
2019-02-27T01:47:02.914Z,95.07
2019-02-27T01:48:01.674Z,96.02
2019-02-27T01:49:01.597Z,97.06
2019-02-27T01:50:01.520Z,97.16
2019-02-27T01:51:01.434Z,96.97
2019-02-27T01:52:02.094Z,93.85
2019-02-27T01:53:01.267Z,90.16
2019-02-27T01:54:01.179Z,87.88
2019-02-27T01:55:01.101Z,88.26
2019-02-27T01:56:01.019Z,88.26
2019-02-27T01:57:02.867Z,89.02
2019-02-27T01:58:00.866Z,89.87
2019-02-27T01:59:00.766Z,91.29
2019-02-27T02:00:00.690Z,92.90
2019-02-27T02:01:00.602Z,93.75
2019-02-27T02:02:01.099Z,94.70
2019-02-27T02:03:00.435Z,95.26
2019-02-27T02:04:00.356Z,95.64
2019-02-27T02:05:00.271Z,94.89
2019-02-27T02:06:00.193Z,92.80
2019-02-27T02:07:00.103Z,89.87
2019-02-27T02:08:00.016Z,88.26
2019-02-27T02:08:59.938Z,88.74
2019-02-27T02:09:59.854Z,89.69
2019-02-27T02:11:01.416Z,90.82
2019-02-27T02:11:59.690Z,91.20
2019-02-27T02:12:59.605Z,92.14
2019-02-27T02:13:59.521Z,92.43
2019-02-27T02:14:59.443Z,92.14
2019-02-27T02:16:00.857Z,91.96
2019-02-27T02:16:59.274Z,92.05
2019-02-27T02:17:59.190Z,91.58
2019-02-27T02:18:59.105Z,91.58
2019-02-27T02:19:59.028Z,91.20
2019-02-27T02:21:01.667Z,91.01
2019-02-27T02:21:58.859Z,90.82
2019-02-27T02:22:58.770Z,90.72
2019-02-27T02:23:58.693Z,90.25
2019-02-27T02:24:58.610Z,90.34
2019-02-27T02:26:01.092Z,90.34
2019-02-27T02:26:58.443Z,90.25
2019-02-27T02:27:58.369Z,91.29
2019-02-27T02:28:58.276Z,91.20
2019-02-27T02:29:58.191Z,91.39
2019-02-27T02:30:58.106Z,91.48
2019-02-27T02:31:58.028Z,91.86
2019-02-27T02:32:57.946Z,91.58
2019-02-27T02:33:57.857Z,91.20
2019-02-27T02:34:57.778Z,90.25
2019-02-27T02:35:57.697Z,90.53
2019-02-27T02:37:01.419Z,90.25
2019-02-27T02:37:57.531Z,90.44
2019-02-27T02:38:57.444Z,90.16
2019-02-27T02:39:57.368Z,90.25
2019-02-27T02:40:57.279Z,90.53
2019-02-27T02:41:57.196Z,90.25
2019-02-27T02:43:02.119Z,90.91
2019-02-27T02:43:57.032Z,91.48
2019-02-27T02:44:57.666Z,91.39
2019-02-27T02:45:56.862Z,91.10
2019-02-27T02:46:56.781Z,89.78
2019-02-27T02:47:56.913Z,89.50
2019-02-27T02:48:56.634Z,90.06
2019-02-27T02:49:56.527Z,90.49
2019-02-27T02:50:56.445Z,91.72
2019-02-27T02:51:56.367Z,91.91
2019-02-27T02:52:56.281Z,91.53
2019-02-27T02:54:00.335Z,91.05
2019-02-27T02:54:56.117Z,88.79
2019-02-27T02:55:56.025Z,87.55
2019-02-27T02:57:00.188Z,86.80
2019-02-27T02:57:55.861Z,86.90
2019-02-27T02:58:55.776Z,89.07
2019-02-27T02:59:59.423Z,91.24
2019-02-27T03:00:55.683Z,92.38
2019-02-27T03:01:55.564Z,93.61
2019-02-27T03:02:57.465Z,94.65
2019-02-27T03:03:55.369Z,95.59
2019-02-27T03:04:55.278Z,96.73
2019-02-27T03:05:59.792Z,97.49
2019-02-27T03:06:55.115Z,98.81
2019-02-27T03:07:55.031Z,99.38
2019-02-27T03:08:56.226Z,99.38
2019-02-27T03:09:54.864Z,99.57
2019-02-27T03:10:54.780Z,99.38
2019-02-27T03:11:55.815Z,99.47
2019-02-27T03:12:54.614Z,98.14
2019-02-27T03:13:54.532Z,94.46
2019-02-27T03:14:54.619Z,89.17
2019-02-27T03:15:54.366Z,86.33
2019-02-27T03:16:54.283Z,86.33
2019-02-27T03:17:55.055Z,86.52
2019-02-27T03:18:54.113Z,87.08
2019-02-27T03:19:54.027Z,88.79
2019-02-27T03:20:53.946Z,89.92
2019-02-27T03:21:53.862Z,92.19
2019-02-27T03:22:53.779Z,93.32
2019-02-27T03:23:53.693Z,94.56
2019-02-27T03:24:53.612Z,95.31
2019-02-27T03:25:53.521Z,95.59
2019-02-27T03:26:53.437Z,95.21
2019-02-27T03:27:53.360Z,94.84
2019-02-27T03:28:53.275Z,94.18
2019-02-27T03:29:53.861Z,93.32
2019-02-27T03:30:53.110Z,94.37
2019-02-27T03:32:00.001Z,91.53
2019-02-27T03:32:52.943Z,90.20
2019-02-27T03:33:52.858Z,88.98
2019-02-27T03:34:52.773Z,88.50
2019-02-27T03:35:52.684Z,88.60
2019-02-27T03:36:52.600Z,88.31
2019-02-27T03:37:52.529Z,87.74
2019-02-27T03:38:55.913Z,87.18
2019-02-27T03:39:52.350Z,86.80
2019-02-27T03:40:52.278Z,87.27
2019-02-27T03:41:58.391Z,88.41
2019-02-27T03:42:52.101Z,89.73
2019-02-27T03:43:52.029Z,91.05
2019-02-27T03:44:55.772Z,92.29
2019-02-27T03:45:51.858Z,92.29
2019-02-27T03:46:51.775Z,91.43
2019-02-27T03:47:52.090Z,89.73
2019-02-27T03:48:51.597Z,89.73
2019-02-27T03:49:51.522Z,90.49
2019-02-27T03:50:51.434Z,91.15
2019-02-27T03:51:51.351Z,91.24
2019-02-27T03:52:51.269Z,91.91
2019-02-27T03:53:51.186Z,92.76
2019-02-27T03:54:56.952Z,93.99
2019-02-27T03:55:51.019Z,94.56
2019-02-27T03:56:50.935Z,95.50
2019-02-27T03:57:54.882Z,96.35
2019-02-27T03:58:50.762Z,97.30
2019-02-27T03:59:50.674Z,98.14
2019-02-27T04:00:53.730Z,97.96
2019-02-27T04:01:50.511Z,97.25
2019-02-27T04:02:50.431Z,97.96
2019-02-27T04:03:54.253Z,99.66
2019-02-27T04:04:50.260Z,99.99
2019-02-27T04:05:50.175Z,99.99
2019-02-27T04:06:52.985Z,99.99
2019-02-27T04:07:50.010Z,99.99
2019-02-27T04:08:49.936Z,99.99
2019-02-27T04:09:54.806Z,99.99
2019-02-27T04:10:49.758Z,99.99
2019-02-27T04:11:49.674Z,99.99
2019-02-27T04:12:51.648Z,98.71
2019-02-27T04:13:49.510Z,96.64
2019-02-27T04:14:49.428Z,95.12
2019-02-27T04:15:53.350Z,93.70
2019-02-27T04:16:49.256Z,90.96
2019-02-27T04:17:52.210Z,88.60
2019-02-27T04:18:49.099Z,87.84
2019-02-27T04:19:49.004Z,87.55
2019-02-27T04:20:50.708Z,88.41
2019-02-27T04:21:48.839Z,89.92
2019-02-27T04:22:48.750Z,92.38
2019-02-27T04:23:49.329Z,94.03
2019-02-27T04:24:48.592Z,95.59
2019-02-27T04:25:48.496Z,96.26
2019-02-27T04:26:48.418Z,96.26
2019-02-27T04:27:48.334Z,94.84
2019-02-27T04:28:48.248Z,94.93
2019-02-27T04:29:48.164Z,95.03
2019-02-27T04:30:51.122Z,94.08
2019-02-27T04:31:47.993Z,92.94
2019-02-27T04:32:48.919Z,93.75
2019-02-27T04:33:47.825Z,93.28
2019-02-27T04:34:47.749Z,93.84
2019-02-27T04:35:47.660Z,94.70
2019-02-27T04:36:47.811Z,94.98
2019-02-27T04:37:47.491Z,95.17
2019-02-27T04:38:47.410Z,94.89
2019-02-27T04:39:47.329Z,94.22
2019-02-27T04:40:47.242Z,92.80
2019-02-27T04:41:49.562Z,90.44
2019-02-27T04:42:47.068Z,89.50
2019-02-27T04:43:46.989Z,90.16
2019-02-27T04:44:46.900Z,91.53
2019-02-27T04:45:47.584Z,92.43
2019-02-27T04:46:46.737Z,93.32
2019-02-27T04:47:46.653Z,93.70
2019-02-27T04:48:46.568Z,94.41
2019-02-27T04:49:46.494Z,94.60
2019-02-27T04:50:46.414Z,95.12
2019-02-27T04:51:48.131Z,96.02
2019-02-27T04:52:46.233Z,96.16
2019-02-27T04:53:46.153Z,95.83
2019-02-27T04:54:46.066Z,95.83
2019-02-27T04:55:47.980Z,95.12
2019-02-27T04:56:45.898Z,94.08
2019-02-27T04:57:45.814Z,94.79
2019-02-27T04:58:45.730Z,94.84
2019-02-27T04:59:45.645Z,94.89
2019-02-27T05:00:45.561Z,95.40
2019-02-27T05:01:45.474Z,95.83
2019-02-27T05:02:45.395Z,96.02
2019-02-27T05:03:45.308Z,96.11
2019-02-27T05:04:45.244Z,95.45
2019-02-27T05:05:45.144Z,94.89
2019-02-27T05:06:47.275Z,95.36
2019-02-27T05:07:44.984Z,96.02
2019-02-27T05:08:44.894Z,96.21
2019-02-27T05:09:44.812Z,96.96
2019-02-27T05:10:44.720Z,97.25
2019-02-27T05:11:47.449Z,98.57
2019-02-27T05:12:47.838Z,99.33
2019-02-27T05:13:44.468Z,99.33
2019-02-27T05:14:44.384Z,99.61
2019-02-27T05:15:44.299Z,99.99
2019-02-27T05:16:46.999Z,99.99
2019-02-27T05:17:44.126Z,99.99
2019-02-27T05:18:44.045Z,99.89
2019-02-27T05:19:43.962Z,99.52
2019-02-27T05:20:45.689Z,99.23
2019-02-27T05:21:43.795Z,98.85
2019-02-27T05:22:43.714Z,96.02
2019-02-27T05:23:43.626Z,93.56
2019-02-27T05:24:43.550Z,92.14
2019-02-27T05:25:43.466Z,90.73
2019-02-27T05:26:43.378Z,91.67
2019-02-27T05:27:43.291Z,92.24
2019-02-27T05:28:43.219Z,93.18
2019-02-27T05:29:43.123Z,93.56
2019-02-27T05:30:45.323Z,94.13
2019-02-27T05:31:42.954Z,95.45
2019-02-27T05:32:42.871Z,96.30
2019-02-27T05:33:42.781Z,96.68
2019-02-27T05:34:42.701Z,97.34
2019-02-27T05:35:42.620Z,97.34
2019-02-27T05:36:42.532Z,97.15
2019-02-27T05:37:42.448Z,96.49
2019-02-27T05:38:43.622Z,96.21
2019-02-27T05:39:42.279Z,96.49
2019-02-27T05:40:42.199Z,96.78
2019-02-27T05:41:42.112Z,96.78
2019-02-27T05:42:42.021Z,96.68
2019-02-27T05:43:41.943Z,96.87
2019-02-27T05:44:41.861Z,97.44
2019-02-27T05:45:41.769Z,98.00
2019-02-27T05:46:41.687Z,98.10
2019-02-27T05:47:44.806Z,98.76
2019-02-27T05:48:41.519Z,98.57
2019-02-27T05:49:41.434Z,98.28
2019-02-27T05:50:41.360Z,98.76
2019-02-27T05:51:41.265Z,97.91
2019-02-27T05:52:41.186Z,97.72
2019-02-27T05:53:41.098Z,97.44
2019-02-27T05:54:41.032Z,97.34
2019-02-27T05:55:40.928Z,96.96
2019-02-27T05:56:40.852Z,96.78
2019-02-27T05:57:40.766Z,96.68
2019-02-27T05:58:40.680Z,96.49
2019-02-27T05:59:40.596Z,96.96
2019-02-27T06:00:40.513Z,97.53
2019-02-27T06:01:40.442Z,97.25
2019-02-27T06:02:41.893Z,98.19
2019-02-27T06:03:40.251Z,96.78
2019-02-27T06:04:40.173Z,96.49
2019-02-27T06:05:40.089Z,96.96
2019-02-27T06:06:40.000Z,96.49
2019-02-27T06:07:39.921Z,97.63
2019-02-27T06:08:39.837Z,98.66
2019-02-27T06:09:41.398Z,99.14
2019-02-27T06:10:39.669Z,99.61
2019-02-27T06:11:39.588Z,99.99
2019-02-27T06:12:40.746Z,99.99
2019-02-27T06:13:39.418Z,99.99
2019-02-27T06:14:39.332Z,99.99
2019-02-27T06:15:39.247Z,99.99
2019-02-27T06:16:40.859Z,99.99
2019-02-27T06:17:43.438Z,99.99
2019-02-27T06:18:38.993Z,99.99
2019-02-27T06:19:38.906Z,99.99
2019-02-27T06:20:41.592Z,99.89
2019-02-27T06:21:38.934Z,99.89
2019-02-27T06:22:38.658Z,99.89
2019-02-27T06:23:38.574Z,99.52
2019-02-27T06:24:38.493Z,99.33
2019-02-27T06:25:38.400Z,99.71
2019-02-27T06:26:38.318Z,99.61
2019-02-27T06:27:39.413Z,99.14
2019-02-27T06:28:38.152Z,98.95
2019-02-27T06:29:38.065Z,98.95
2019-02-27T06:30:37.982Z,97.91
2019-02-27T06:31:39.529Z,96.87
2019-02-27T06:32:37.815Z,95.26
2019-02-27T06:33:37.735Z,94.60
2019-02-27T06:34:37.647Z,94.13
2019-02-27T06:35:37.558Z,94.60
2019-02-27T06:36:42.031Z,94.89
2019-02-27T06:37:37.391Z,96.21
2019-02-27T06:38:37.306Z,96.96
2019-02-27T06:39:37.223Z,97.44
2019-02-27T06:40:37.135Z,98.19
2019-02-27T06:41:37.053Z,99.04
2019-02-27T06:42:36.970Z,98.76
2019-02-27T06:43:36.884Z,98.66
2019-02-27T06:44:39.325Z,99.23
2019-02-27T06:45:36.718Z,99.42
2019-02-27T06:46:36.631Z,99.52
2019-02-27T06:47:36.543Z,99.89
2019-02-27T06:48:36.459Z,99.99
2019-02-27T06:49:36.382Z,99.99
2019-02-27T06:50:36.297Z,99.99
2019-02-27T06:51:36.537Z,99.99
2019-02-27T06:52:36.127Z,99.99
2019-02-27T06:53:36.038Z,99.99
2019-02-27T06:54:37.768Z,99.99
2019-02-27T06:55:35.876Z,99.99
2019-02-27T06:56:35.788Z,99.99
2019-02-27T06:57:35.705Z,99.99
2019-02-27T06:58:35.622Z,99.99
2019-02-27T06:59:35.536Z,99.99
2019-02-27T07:00:36.726Z,99.99
2019-02-27T07:01:35.370Z,99.99
2019-02-27T07:02:35.285Z,99.99
2019-02-27T07:03:35.198Z,99.99
2019-02-27T07:04:36.433Z,99.99
2019-02-27T07:05:35.031Z,99.99
2019-02-27T07:06:36.869Z,99.99
2019-02-27T07:07:34.877Z,99.99
2019-02-27T07:08:37.852Z,99.99
2019-02-27T07:09:34.696Z,99.99
2019-02-27T07:10:34.608Z,99.99
2019-02-27T07:11:34.528Z,99.99
2019-02-27T07:12:34.436Z,99.99
2019-02-27T07:13:34.364Z,99.99
2019-02-27T07:14:36.515Z,99.99
2019-02-27T07:15:34.189Z,99.99
2019-02-27T07:16:34.105Z,99.99
2019-02-27T07:17:34.025Z,99.99
2019-02-27T07:18:33.935Z,99.99
2019-02-27T07:19:33.853Z,99.99
2019-02-27T07:20:33.763Z,99.99
2019-02-27T07:21:33.684Z,99.99
2019-02-27T07:22:33.598Z,99.99
2019-02-27T07:23:35.235Z,99.99
2019-02-27T07:24:33.803Z,99.99
2019-02-27T07:25:33.349Z,99.99
2019-02-27T07:26:33.263Z,99.99
2019-02-27T07:27:33.177Z,99.99
2019-02-27T07:28:33.102Z,99.99
2019-02-27T07:29:33.015Z,99.99
2019-02-27T07:30:32.930Z,99.99
2019-02-27T07:31:32.845Z,99.99
2019-02-27T07:32:32.755Z,99.99
2019-02-27T07:33:32.678Z,99.99
2019-02-27T07:34:32.591Z,99.05
2019-02-27T07:35:32.507Z,98.25
2019-02-27T07:36:32.428Z,99.57
2019-02-27T07:37:32.342Z,98.91
2019-02-27T07:38:32.258Z,97.68
2019-02-27T07:39:32.787Z,95.59
2019-02-27T07:40:32.095Z,94.93
2019-02-27T07:41:32.007Z,94.93
2019-02-27T07:42:32.634Z,94.93
2019-02-27T07:43:31.845Z,93.84
2019-02-27T07:44:32.226Z,93.56
2019-02-27T07:45:31.675Z,92.14
2019-02-27T07:46:31.588Z,91.38
2019-02-27T07:47:31.517Z,89.77
2019-02-27T07:48:31.426Z,88.96
2019-02-27T07:49:31.587Z,88.87
2019-02-27T07:50:32.564Z,88.87
2019-02-27T07:51:31.181Z,88.02
2019-02-27T07:52:32.613Z,86.69
2019-02-27T07:53:31.012Z,85.74
2019-02-27T07:54:30.927Z,84.70
2019-02-27T07:55:30.842Z,85.22
2019-02-27T07:56:30.764Z,85.41
2019-02-27T07:57:30.686Z,84.94
2019-02-27T07:58:33.695Z,84.27
2019-02-27T07:59:30.509Z,81.81
2019-02-27T08:00:30.427Z,81.43
2019-02-27T08:01:30.340Z,81.94
2019-02-27T08:02:30.259Z,81.18
2019-02-27T08:03:30.180Z,80.43
2019-02-27T08:04:30.098Z,79.38
2019-02-27T08:05:30.013Z,80.14
2019-02-27T08:06:29.932Z,80.71
2019-02-27T08:07:29.857Z,79.47
2019-02-27T08:08:29.767Z,78.28
2019-02-27T08:09:30.255Z,78.38
2019-02-27T08:10:29.606Z,77.62
2019-02-27T08:11:29.516Z,76.95
2019-02-27T08:12:29.439Z,77.62
2019-02-27T08:13:29.764Z,77.43
2019-02-27T08:14:29.278Z,77.05
2019-02-27T08:15:29.196Z,76.67
2019-02-27T08:16:29.116Z,76.14
2019-02-27T08:17:29.028Z,76.14
2019-02-27T08:18:30.441Z,75.38
2019-02-27T08:19:28.867Z,75.76
2019-02-27T08:20:28.786Z,76.04
2019-02-27T08:21:28.759Z,76.14
2019-02-27T08:22:28.622Z,76.04
2019-02-27T08:23:28.537Z,76.18
2019-02-27T08:24:28.460Z,75.79
2019-02-27T08:25:28.379Z,75.42
2019-02-27T08:26:28.299Z,74.37
2019-02-27T08:27:28.215Z,74.37
2019-02-27T08:28:28.139Z,74.56
2019-02-27T08:29:28.049Z,75.04
2019-02-27T08:30:27.973Z,74.37
2019-02-27T08:31:28.756Z,74.47
2019-02-27T08:32:27.807Z,73.93
2019-02-27T08:33:27.728Z,73.27
2019-02-27T08:34:27.648Z,72.70
2019-02-27T08:35:27.567Z,72.22
2019-02-27T08:36:27.484Z,71.37
2019-02-27T08:37:27.401Z,71.22
2019-02-27T08:38:27.328Z,72.07
2019-02-27T08:39:27.243Z,72.64
2019-02-27T08:40:27.158Z,72.26
2019-02-27T08:41:29.164Z,71.31
2019-02-27T08:42:27.005Z,70.10
2019-02-27T08:43:26.923Z,69.82
2019-02-27T08:44:26.842Z,70.58
2019-02-27T08:45:27.692Z,69.63
2019-02-27T08:46:26.682Z,68.96
2019-02-27T08:47:26.601Z,68.59
2019-02-27T08:48:26.521Z,69.10
2019-02-27T08:49:26.435Z,68.05
2019-02-27T08:50:29.213Z,67.57
2019-02-27T08:51:26.281Z,66.43
2019-02-27T08:52:26.222Z,65.95
2019-02-27T08:53:26.966Z,65.67
2019-02-27T08:54:26.037Z,65.80
2019-02-27T08:55:25.963Z,66.08
2019-02-27T08:56:25.885Z,67.03
2019-02-27T08:57:25.802Z,67.03
2019-02-27T08:58:26.673Z,66.18
2019-02-27T08:59:25.644Z,66.18
2019-02-27T09:00:25.563Z,66.21
2019-02-27T09:01:25.477Z,65.92
2019-02-27T09:02:29.254Z,65.64
2019-02-27T09:03:25.322Z,65.36
2019-02-27T09:04:25.246Z,66.21
2019-02-27T09:05:25.175Z,65.07
2019-02-27T09:06:27.541Z,62.81
2019-02-27T09:07:25.005Z,62.15
2019-02-27T09:08:24.929Z,60.97
2019-02-27T09:09:24.845Z,60.91
2019-02-27T09:10:26.864Z,60.62
2019-02-27T09:11:24.697Z,61.00
2019-02-27T09:12:24.611Z,60.91
2019-02-27T09:13:24.533Z,60.81
2019-02-27T09:14:24.453Z,59.70
2019-02-27T09:15:24.397Z,58.46
2019-02-27T09:16:26.014Z,58.55
2019-02-27T09:17:26.886Z,58.36
2019-02-27T09:18:24.143Z,58.94
2019-02-27T09:19:24.063Z,59.70
2019-02-27T09:20:23.979Z,60.46
2019-02-27T09:21:24.959Z,60.36
2019-02-27T09:22:23.825Z,59.31
2019-02-27T09:23:23.745Z,58.75
2019-02-27T09:24:23.677Z,59.12
2019-02-27T09:25:24.638Z,59.16
2019-02-27T09:26:24.321Z,59.63
2019-02-27T09:27:23.437Z,60.49
2019-02-27T09:28:23.359Z,60.39
2019-02-27T09:29:23.279Z,58.97
2019-02-27T09:30:23.208Z,57.34
2019-02-27T09:31:23.124Z,57.43
2019-02-27T09:32:23.048Z,58.20
2019-02-27T09:33:22.968Z,58.04
2019-02-27T09:34:26.613Z,56.23
2019-02-27T09:35:22.811Z,55.27
2019-02-27T09:36:22.737Z,54.60
2019-02-27T09:37:22.656Z,54.50
2019-02-27T09:38:24.395Z,53.45
2019-02-27T09:39:22.495Z,53.84
2019-02-27T09:40:22.422Z,55.08
2019-02-27T09:41:22.347Z,54.22
2019-02-27T09:42:22.271Z,53.58
2019-02-27T09:43:24.079Z,52.34
2019-02-27T09:44:22.124Z,50.90
2019-02-27T09:45:22.037Z,51.48
2019-02-27T09:46:21.961Z,51.86
2019-02-27T09:47:23.218Z,51.86
2019-02-27T09:48:21.806Z,52.24
2019-02-27T09:49:21.726Z,51.57
2019-02-27T09:50:21.650Z,51.60
2019-02-27T09:51:22.223Z,51.76
2019-02-27T09:52:21.496Z,50.04
2019-02-27T09:53:21.419Z,49.98
2019-02-27T09:54:21.338Z,50.74
2019-02-27T09:55:21.262Z,51.89
2019-02-27T09:56:21.193Z,50.74
2019-02-27T09:57:21.107Z,51.21
2019-02-27T09:58:22.577Z,49.80
2019-02-27T09:59:20.961Z,49.43
2019-02-27T10:00:20.882Z,49.52
2019-02-27T10:01:20.808Z,49.23
2019-02-27T10:02:20.739Z,50.38
2019-02-27T10:03:21.572Z,51.05
2019-02-27T10:04:20.573Z,49.33
2019-02-27T10:05:20.532Z,46.94
2019-02-27T10:06:20.422Z,46.17
2019-02-27T10:07:20.362Z,46.58
2019-02-27T10:08:20.280Z,48.02
2019-02-27T10:09:20.257Z,49.45
2019-02-27T10:10:20.112Z,49.35
2019-02-27T10:11:22.278Z,49.45
2019-02-27T10:12:19.964Z,48.78
2019-02-27T10:13:19.920Z,48.13
2019-02-27T10:14:19.814Z,48.52
2019-02-27T10:15:19.736Z,48.13
2019-02-27T10:16:19.665Z,48.13
2019-02-27T10:17:19.585Z,49.60
2019-02-27T10:18:22.005Z,48.35
2019-02-27T10:19:19.435Z,45.55
2019-02-27T10:20:19.366Z,45.26
2019-02-27T10:21:19.275Z,45.07
2019-02-27T10:22:20.183Z,45.36
2019-02-27T10:23:19.129Z,46.89
2019-02-27T10:24:19.051Z,45.17
2019-02-27T10:25:19.015Z,43.92
2019-02-27T10:26:19.423Z,45.17
2019-02-27T10:27:18.829Z,45.45
2019-02-27T10:28:18.767Z,45.57
2019-02-27T10:29:19.096Z,46.53
2019-02-27T10:30:18.601Z,46.34
2019-02-27T10:31:18.563Z,45.96
2019-02-27T10:32:18.473Z,45.98
2019-02-27T10:33:18.375Z,44.62
2019-02-27T10:34:18.343Z,45.40
2019-02-27T10:35:18.231Z,44.35
2019-02-27T10:36:18.154Z,44.16
2019-02-27T10:37:18.976Z,44.16
2019-02-27T10:38:18.002Z,44.16
2019-02-27T10:39:17.930Z,43.68
2019-02-27T10:40:17.857Z,42.13
2019-02-27T10:41:17.781Z,43.49
2019-02-27T10:42:17.705Z,43.49
2019-02-27T10:43:17.629Z,43.49
2019-02-27T10:44:17.557Z,43.49
2019-02-27T10:45:17.483Z,43.49
2019-02-27T10:46:17.404Z,44.06
2019-02-27T10:47:17.326Z,43.10
2019-02-27T10:48:17.272Z,43.30
2019-02-27T10:49:21.440Z,44.47
2019-02-27T10:50:17.108Z,43.99
2019-02-27T10:51:17.034Z,44.47
2019-02-27T10:52:16.962Z,43.60
2019-02-27T10:53:16.883Z,42.84
2019-02-27T10:54:16.814Z,41.60
2019-02-27T10:55:16.738Z,41.50
2019-02-27T10:56:17.529Z,41.50
2019-02-27T10:57:16.590Z,42.07
2019-02-27T10:58:16.516Z,41.97
2019-02-27T10:59:16.438Z,41.31
2019-02-27T11:00:16.369Z,41.38
2019-02-27T11:01:16.292Z,41.96
2019-02-27T11:02:16.220Z,42.74
2019-02-27T11:03:16.142Z,44.09
2019-02-27T11:04:16.069Z,43.13
2019-02-27T11:05:17.789Z,41.60
2019-02-27T11:06:15.916Z,41.28
2019-02-27T11:07:16.806Z,42.05
2019-02-27T11:08:15.781Z,42.84
2019-02-27T11:09:15.698Z,43.41
2019-02-27T11:10:15.625Z,43.13
2019-02-27T11:11:16.460Z,43.13
2019-02-27T11:12:15.479Z,42.94
2019-02-27T11:13:15.404Z,43.51
2019-02-27T11:14:15.329Z,44.40
2019-02-27T11:15:15.254Z,43.15
2019-02-27T11:16:15.574Z,41.52
2019-02-27T11:17:15.105Z,41.71
2019-02-27T11:18:15.032Z,42.67
2019-02-27T11:19:16.662Z,43.15
2019-02-27T11:20:20.247Z,43.63
2019-02-27T11:21:14.817Z,41.78
2019-02-27T11:22:14.739Z,42.77
2019-02-27T11:23:14.667Z,41.71
2019-02-27T11:24:17.321Z,41.04
2019-02-27T11:25:14.512Z,41.31
2019-02-27T11:26:14.446Z,41.60
2019-02-27T11:27:14.370Z,41.69
2019-02-27T11:28:14.300Z,42.86
2019-02-27T11:29:14.225Z,42.96
2019-02-27T11:30:14.156Z,42.77
2019-02-27T11:31:15.513Z,41.61
2019-02-27T11:32:14.004Z,41.80
2019-02-27T11:33:25.241Z,42.38
2019-02-27T11:34:13.862Z,42.77
2019-02-27T11:35:13.785Z,42.96
2019-02-27T11:36:13.703Z,41.52
2019-02-27T11:37:14.022Z,41.52
2019-02-27T11:38:13.565Z,41.23
2019-02-27T11:39:13.493Z,41.42
2019-02-27T11:40:13.425Z,41.23
2019-02-27T11:41:15.352Z,41.90
2019-02-27T11:42:13.270Z,43.15
2019-02-27T11:43:13.196Z,42.67
2019-02-27T11:44:14.307Z,43.46
2019-02-27T11:45:13.049Z,41.54
2019-02-27T11:46:12.974Z,41.44
2019-02-27T11:47:12.907Z,42.11
2019-02-27T11:48:12.833Z,42.50
2019-02-27T11:49:12.758Z,42.79
2019-02-27T11:50:14.693Z,42.60
2019-02-27T11:51:13.989Z,40.20
2019-02-27T11:52:12.539Z,39.33
2019-02-27T11:53:12.466Z,39.53
2019-02-27T11:54:14.511Z,41.73
2019-02-27T11:55:14.814Z,41.44
2019-02-27T11:56:12.244Z,42.11
2019-02-27T11:57:12.173Z,41.44
2019-02-27T11:58:12.100Z,41.63
2019-02-27T11:59:12.950Z,42.88
2019-02-27T12:00:13.647Z,44.51
2019-02-27T12:01:12.248Z,44.13
2019-02-27T12:02:11.806Z,42.69
2019-02-27T12:03:12.013Z,42.30
2019-02-27T12:04:11.664Z,42.30
2019-02-27T12:05:11.594Z,41.54
2019-02-27T12:06:11.509Z,41.93
2019-02-27T12:07:12.287Z,44.42
2019-02-27T12:08:11.492Z,44.42
2019-02-27T12:09:11.297Z,45.28
2019-02-27T12:10:11.245Z,45.09
2019-02-27T12:11:13.398Z,45.18
2019-02-27T12:12:11.078Z,45.47
2019-02-27T12:13:11.004Z,45.57
2019-02-27T12:14:10.932Z,46.05
2019-02-27T12:15:10.860Z,45.28
2019-02-27T12:16:10.791Z,44.42
2019-02-27T12:17:10.708Z,43.84
2019-02-27T12:18:10.636Z,44.51
2019-02-27T12:19:10.570Z,43.96
2019-02-27T12:20:10.491Z,44.24
2019-02-27T12:21:10.418Z,44.06
2019-02-27T12:22:10.345Z,44.24
2019-02-27T12:23:10.829Z,43.00
2019-02-27T12:24:10.199Z,42.81
2019-02-27T12:25:10.133Z,42.52
2019-02-27T12:26:10.068Z,41.85
2019-02-27T12:27:10.381Z,41.85
2019-02-27T12:28:09.912Z,42.52
2019-02-27T12:29:09.838Z,42.90
2019-02-27T12:30:09.773Z,42.81
2019-02-27T12:31:11.099Z,42.83
2019-02-27T12:32:09.624Z,42.64
2019-02-27T12:33:09.553Z,41.27
2019-02-27T12:34:09.479Z,40.60
2019-02-27T12:35:10.849Z,40.70
2019-02-27T12:36:09.335Z,42.90
2019-02-27T12:37:19.097Z,42.23
2019-02-27T12:38:09.185Z,41.56
2019-02-27T12:39:09.114Z,41.46
2019-02-27T12:40:09.044Z,40.89
2019-02-27T12:41:08.976Z,41.56
2019-02-27T12:42:08.907Z,40.99
2019-02-27T12:43:08.821Z,40.12
2019-02-27T12:44:08.752Z,40.79
2019-02-27T12:45:08.681Z,41.66
2019-02-27T12:46:09.752Z,43.48
2019-02-27T12:47:08.534Z,42.71
2019-02-27T12:48:08.467Z,41.66
2019-02-27T12:49:08.392Z,42.04
2019-02-27T12:50:08.319Z,41.49
2019-02-27T12:51:08.248Z,40.23